sensor_id;sensor_type;location;lat;lon;timestamp;pressure;altitude;pressure_sealevel;temperature;humidity
13974;BME280;7060;43.770;4.008;2022-10-15T00:01:36;101179.72;;;13.29;73.29
13974;BME280;7060;43.770;4.008;2022-10-15T00:04:05;101204.66;;;13.39;73.34
13974;BME280;7060;43.770;4.008;2022-10-15T00:06:33;101199.06;;;13.33;73.63
13974;BME280;7060;43.770;4.008;2022-10-15T00:09:02;101186.88;;;13.20;73.67
13974;BME280;7060;43.770;4.008;2022-10-15T00:11:30;101197.44;;;13.22;73.70
13974;BME280;7060;43.770;4.008;2022-10-15T00:14:00;101196.91;;;13.18;73.94
13974;BME280;7060;43.770;4.008;2022-10-15T00:16:30;101198.59;;;13.19;73.68
13974;BME280;7060;43.770;4.008;2022-10-15T00:18:58;101198.06;;;13.16;73.25
13974;BME280;7060;43.770;4.008;2022-10-15T00:21:27;101188.59;;;13.12;73.31
13974;BME280;7060;43.770;4.008;2022-10-15T00:23:55;101193.81;;;13.13;73.55
13974;BME280;7060;43.770;4.008;2022-10-15T00:26:26;101195.97;;;13.10;73.32
13974;BME280;7060;43.770;4.008;2022-10-15T00:28:56;101196.25;;;13.07;73.64
13974;BME280;7060;43.770;4.008;2022-10-15T00:31:26;101191.41;;;12.93;73.29
13974;BME280;7060;43.770;4.008;2022-10-15T00:33:57;101206.91;;;12.99;73.37
13974;BME280;7060;43.770;4.008;2022-10-15T00:36:27;101203.50;;;12.97;73.32
13974;BME280;7060;43.770;4.008;2022-10-15T00:38:57;101190.88;;;12.89;73.18
13974;BME280;7060;43.770;4.008;2022-10-15T00:41:29;101169.88;;;12.75;73.69
13974;BME280;7060;43.770;4.008;2022-10-15T00:43:59;101193.00;;;12.85;73.84
13974;BME280;7060;43.770;4.008;2022-10-15T00:46:30;101188.63;;;12.84;73.57
13974;BME280;7060;43.770;4.008;2022-10-15T00:49:04;101182.56;;;12.82;73.60
13974;BME280;7060;43.770;4.008;2022-10-15T00:51:41;101184.00;;;12.77;74.06
13974;BME280;7060;43.770;4.008;2022-10-15T00:54:10;101192.91;;;12.77;74.19
13974;BME280;7060;43.770;4.008;2022-10-15T00:56:41;101195.72;;;12.76;73.85
13974;BME280;7060;43.770;4.008;2022-10-15T00:59:12;101197.84;;;12.72;73.99
13974;BME280;7060;43.770;4.008;2022-10-15T01:01:41;101193.78;;;12.68;74.24
13974;BME280;7060;43.770;4.008;2022-10-15T01:04:14;101202.22;;;12.73;74.32
13974;BME280;7060;43.770;4.008;2022-10-15T01:06:43;101206.47;;;12.76;74.16
13974;BME280;7060;43.770;4.008;2022-10-15T01:09:12;101202.94;;;12.75;73.97
13974;BME280;7060;43.770;4.008;2022-10-15T01:11:44;101192.19;;;12.75;73.72
13974;BME280;7060;43.770;4.008;2022-10-15T01:14:24;101180.47;;;12.76;73.02
13974;BME280;7060;43.770;4.008;2022-10-15T01:17:02;101185.06;;;12.66;73.06
13974;BME280;7060;43.770;4.008;2022-10-15T01:22:56;101173.53;;;12.56;72.55
13974;BME280;7060;43.770;4.008;2022-10-15T01:25:37;101172.13;;;12.52;73.10
13974;BME280;7060;43.770;4.008;2022-10-15T01:28:19;101170.13;;;12.54;72.68
13974;BME280;7060;43.770;4.008;2022-10-15T01:30:57;101172.25;;;12.50;72.96
13974;BME280;7060;43.770;4.008;2022-10-15T01:33:33;101170.56;;;12.49;73.59
13974;BME280;7060;43.770;4.008;2022-10-15T01:36:10;101167.19;;;12.47;73.58
13974;BME280;7060;43.770;4.008;2022-10-15T01:38:47;101160.13;;;12.46;73.70
13974;BME280;7060;43.770;4.008;2022-10-15T01:41:21;101147.50;;;12.39;73.50
13974;BME280;7060;43.770;4.008;2022-10-15T01:43:57;101142.00;;;12.31;73.92
13974;BME280;7060;43.770;4.008;2022-10-15T01:46:53;101141.03;;;12.32;73.80
13974;BME280;7060;43.770;4.008;2022-10-15T01:49:29;101133.13;;;12.30;73.87
13974;BME280;7060;43.770;4.008;2022-10-15T01:52:08;101128.75;;;12.29;73.88
13974;BME280;7060;43.770;4.008;2022-10-15T01:54:40;101133.28;;;12.29;74.06
13974;BME280;7060;43.770;4.008;2022-10-15T01:57:10;101128.91;;;12.28;73.33
13974;BME280;7060;43.770;4.008;2022-10-15T01:59:41;101119.47;;;12.24;73.63
13974;BME280;7060;43.770;4.008;2022-10-15T02:02:12;101116.50;;;12.17;74.05
13974;BME280;7060;43.770;4.008;2022-10-15T02:04:41;101110.75;;;12.12;74.03
13974;BME280;7060;43.770;4.008;2022-10-15T02:07:13;101116.06;;;12.21;73.98
13974;BME280;7060;43.770;4.008;2022-10-15T02:09:48;101114.94;;;12.24;74.04
13974;BME280;7060;43.770;4.008;2022-10-15T02:12:30;101105.34;;;12.21;73.52
13974;BME280;7060;43.770;4.008;2022-10-15T02:15:05;101098.59;;;12.17;73.01
13974;BME280;7060;43.770;4.008;2022-10-15T02:17:42;101095.50;;;12.12;73.07
13974;BME280;7060;43.770;4.008;2022-10-15T02:20:15;101093.41;;;12.06;73.50
13974;BME280;7060;43.770;4.008;2022-10-15T02:22:49;101096.38;;;12.03;73.71
13974;BME280;7060;43.770;4.008;2022-10-15T02:25:23;101069.50;;;11.85;73.22
13974;BME280;7060;43.770;4.008;2022-10-15T02:27:54;101098.63;;;11.98;73.99
13974;BME280;7060;43.770;4.008;2022-10-15T02:30:27;101099.50;;;11.99;73.76
13974;BME280;7060;43.770;4.008;2022-10-15T02:32:58;101101.19;;;12.00;74.23
13974;BME280;7060;43.770;4.008;2022-10-15T02:35:27;101067.97;;;11.83;74.05
13974;BME280;7060;43.770;4.008;2022-10-15T02:37:59;101100.75;;;12.04;74.03
13974;BME280;7060;43.770;4.008;2022-10-15T02:40:32;101103.00;;;11.99;74.04
13974;BME280;7060;43.770;4.008;2022-10-15T02:43:04;101098.34;;;12.01;73.79
13974;BME280;7060;43.770;4.008;2022-10-15T02:45:34;101098.34;;;12.01;74.16
13974;BME280;7060;43.770;4.008;2022-10-15T02:48:04;101097.50;;;12.01;73.81
13974;BME280;7060;43.770;4.008;2022-10-15T02:50:34;101095.97;;;11.98;73.04
13974;BME280;7060;43.770;4.008;2022-10-15T02:53:03;101109.78;;;11.94;72.75
13974;BME280;7060;43.770;4.008;2022-10-15T02:55:32;100983.56;;;11.23;72.84
13974;BME280;7060;43.770;4.008;2022-10-15T02:58:01;101095.75;;;11.82;72.70
13974;BME280;7060;43.770;4.008;2022-10-15T03:00:30;101091.50;;;11.79;72.80
13974;BME280;7060;43.770;4.008;2022-10-15T03:02:58;101098.00;;;11.77;73.20
13974;BME280;7060;43.770;4.008;2022-10-15T03:05:29;101099.00;;;11.76;73.10
13974;BME280;7060;43.770;4.008;2022-10-15T03:07:58;101091.94;;;11.75;72.95
13974;BME280;7060;43.770;4.008;2022-10-15T03:10:27;101105.06;;;11.68;73.31
13974;BME280;7060;43.770;4.008;2022-10-15T03:13:01;101084.75;;;11.66;73.28
13974;BME280;7060;43.770;4.008;2022-10-15T03:15:32;101063.38;;;11.46;73.39
13974;BME280;7060;43.770;4.008;2022-10-15T03:18:02;101100.72;;;11.58;73.31
13974;BME280;7060;43.770;4.008;2022-10-15T03:20:31;101093.97;;;11.53;73.27
13974;BME280;7060;43.770;4.008;2022-10-15T03:23:00;101092.00;;;11.46;73.73
13974;BME280;7060;43.770;4.008;2022-10-15T03:25:31;101091.44;;;11.42;74.11
13974;BME280;7060;43.770;4.008;2022-10-15T03:28:03;101095.66;;;11.45;74.17
13974;BME280;7060;43.770;4.008;2022-10-15T03:30:38;101088.47;;;11.45;74.08
13974;BME280;7060;43.770;4.008;2022-10-15T03:33:06;101089.75;;;11.41;74.18
13974;BME280;7060;43.770;4.008;2022-10-15T03:35:37;101093.25;;;11.42;74.05
13974;BME280;7060;43.770;4.008;2022-10-15T03:38:07;101092.56;;;11.40;74.13
13974;BME280;7060;43.770;4.008;2022-10-15T03:40:36;101094.38;;;11.39;74.12
13974;BME280;7060;43.770;4.008;2022-10-15T03:43:18;101084.09;;;11.35;74.07
13974;BME280;7060;43.770;4.008;2022-10-15T03:45:46;101083.25;;;11.34;74.22
13974;BME280;7060;43.770;4.008;2022-10-15T03:48:20;101087.91;;;11.32;74.48
13974;BME280;7060;43.770;4.008;2022-10-15T03:50:50;101083.41;;;11.33;74.48
13974;BME280;7060;43.770;4.008;2022-10-15T03:53:18;101078.19;;;11.31;74.15
13974;BME280;7060;43.770;4.008;2022-10-15T03:55:47;101085.81;;;11.26;73.91
13974;BME280;7060;43.770;4.008;2022-10-15T03:58:15;101084.13;;;11.25;73.89
13974;BME280;7060;43.770;4.008;2022-10-15T04:00:51;101076.22;;;11.14;73.66
13974;BME280;7060;43.770;4.008;2022-10-15T04:03:20;101087.91;;;11.13;73.71
13974;BME280;7060;43.770;4.008;2022-10-15T04:05:51;101077.50;;;11.10;73.52
13974;BME280;7060;43.770;4.008;2022-10-15T04:08:25;101078.38;;;11.01;73.53
13974;BME280;7060;43.770;4.008;2022-10-15T04:10:53;101082.44;;;10.95;73.67
13974;BME280;7060;43.770;4.008;2022-10-15T04:13:22;101084.41;;;10.93;73.80
13974;BME280;7060;43.770;4.008;2022-10-15T04:15:51;101074.41;;;10.95;73.98
13974;BME280;7060;43.770;4.008;2022-10-15T04:18:19;101079.47;;;10.98;73.97
13974;BME280;7060;43.770;4.008;2022-10-15T04:20:57;101077.66;;;10.99;73.65
13974;BME280;7060;43.770;4.008;2022-10-15T04:23:25;101083.56;;;10.93;74.22
13974;BME280;7060;43.770;4.008;2022-10-15T04:26:26;101082.41;;;10.85;74.14
13974;BME280;7060;43.770;4.008;2022-10-15T04:28:58;101070.59;;;10.88;74.50
13974;BME280;7060;43.770;4.008;2022-10-15T04:31:27;101080.16;;;10.91;74.30
13974;BME280;7060;43.770;4.008;2022-10-15T04:33:56;101085.53;;;10.91;74.31
13974;BME280;7060;43.770;4.008;2022-10-15T04:36:27;101086.50;;;10.90;74.42
13974;BME280;7060;43.770;4.008;2022-10-15T04:38:59;101090.03;;;10.90;74.22
13974;BME280;7060;43.770;4.008;2022-10-15T04:41:36;101090.16;;;10.89;74.43
13974;BME280;7060;43.770;4.008;2022-10-15T04:44:16;101064.66;;;10.75;74.27
13974;BME280;7060;43.770;4.008;2022-10-15T04:46:53;101011.81;;;10.38;74.64
13974;BME280;7060;43.770;4.008;2022-10-15T04:49:42;101089.03;;;10.81;74.76
13974;BME280;7060;43.770;4.008;2022-10-15T04:52:27;101091.41;;;10.84;75.10
13974;BME280;7060;43.770;4.008;2022-10-15T04:55:01;101023.53;;;10.47;74.44
13974;BME280;7060;43.770;4.008;2022-10-15T04:57:30;101082.66;;;10.73;74.75
13974;BME280;7060;43.770;4.008;2022-10-15T04:59:59;101098.03;;;10.80;74.52
13974;BME280;7060;43.770;4.008;2022-10-15T05:02:33;101078.72;;;10.67;74.51
13974;BME280;7060;43.770;4.008;2022-10-15T05:05:30;101089.13;;;10.70;74.38
13974;BME280;7060;43.770;4.008;2022-10-15T05:08:03;101085.75;;;10.68;74.52
13974;BME280;7060;43.770;4.008;2022-10-15T05:10:43;101098.13;;;10.69;74.82
13974;BME280;7060;43.770;4.008;2022-10-15T05:13:12;101095.56;;;10.58;74.62
13974;BME280;7060;43.770;4.008;2022-10-15T05:15:41;101103.22;;;10.72;74.32
13974;BME280;7060;43.770;4.008;2022-10-15T05:18:09;101095.59;;;10.68;73.81
13974;BME280;7060;43.770;4.008;2022-10-15T05:20:48;101101.94;;;10.67;74.01
13974;BME280;7060;43.770;4.008;2022-10-15T05:23:20;101099.53;;;10.64;73.96
13974;BME280;7060;43.770;4.008;2022-10-15T05:25:58;101106.00;;;10.61;74.49
13974;BME280;7060;43.770;4.008;2022-10-15T05:28:27;101103.31;;;10.61;74.22
13974;BME280;7060;43.770;4.008;2022-10-15T05:30:55;101105.28;;;10.59;74.21
13974;BME280;7060;43.770;4.008;2022-10-15T05:33:26;101108.78;;;10.60;74.17
13974;BME280;7060;43.770;4.008;2022-10-15T05:35:55;101104.28;;;10.60;73.72
13974;BME280;7060;43.770;4.008;2022-10-15T05:38:25;101109.91;;;10.57;73.23
13974;BME280;7060;43.770;4.008;2022-10-15T05:40:53;101105.41;;;10.48;73.29
13974;BME280;7060;43.770;4.008;2022-10-15T05:43:23;101103.72;;;10.47;73.52
13974;BME280;7060;43.770;4.008;2022-10-15T05:45:53;101094.28;;;10.43;73.48
13974;BME280;7060;43.770;4.008;2022-10-15T05:48:22;101097.78;;;10.43;73.59
13974;BME280;7060;43.770;4.008;2022-10-15T05:50:51;101068.31;;;10.24;73.65
13974;BME280;7060;43.770;4.008;2022-10-15T05:53:26;101104.13;;;10.42;73.76
13974;BME280;7060;43.770;4.008;2022-10-15T05:55:59;101103.13;;;10.43;73.97
13974;BME280;7060;43.770;4.008;2022-10-15T05:58:32;101092.84;;;10.39;73.63
13974;BME280;7060;43.770;4.008;2022-10-15T06:01:05;101102.16;;;10.44;73.58
13974;BME280;7060;43.770;4.008;2022-10-15T06:03:38;101100.88;;;10.39;73.32
13974;BME280;7060;43.770;4.008;2022-10-15T06:06:12;101109.28;;;10.34;73.56
13974;BME280;7060;43.770;4.008;2022-10-15T06:08:43;101113.78;;;10.34;73.90
13974;BME280;7060;43.770;4.008;2022-10-15T06:11:11;101112.53;;;10.38;73.74
13974;BME280;7060;43.770;4.008;2022-10-15T06:13:40;101082.38;;;10.16;73.28
13974;BME280;7060;43.770;4.008;2022-10-15T06:16:09;101118.84;;;10.37;73.35
13974;BME280;7060;43.770;4.008;2022-10-15T06:18:38;101128.56;;;10.38;73.68
13974;BME280;7060;43.770;4.008;2022-10-15T06:21:07;101083.47;;;10.14;73.75
13974;BME280;7060;43.770;4.008;2022-10-15T06:23:35;101093.75;;;10.18;74.03
13974;BME280;7060;43.770;4.008;2022-10-15T06:26:07;101120.81;;;10.35;73.87
13974;BME280;7060;43.770;4.008;2022-10-15T06:28:36;101101.22;;;10.25;74.56
13974;BME280;7060;43.770;4.008;2022-10-15T06:31:06;101118.84;;;10.37;74.41
13974;BME280;7060;43.770;4.008;2022-10-15T06:33:35;101123.09;;;10.39;74.60
13974;BME280;7060;43.770;4.008;2022-10-15T06:36:04;101121.72;;;10.45;74.51
13974;BME280;7060;43.770;4.008;2022-10-15T06:38:33;101116.66;;;10.51;74.58
13974;BME280;7060;43.770;4.008;2022-10-15T06:41:04;101120.34;;;10.60;74.48
13974;BME280;7060;43.770;4.008;2022-10-15T06:43:33;101112.00;;;10.53;74.74
13974;BME280;7060;43.770;4.008;2022-10-15T06:46:03;101126.84;;;10.67;74.47
13974;BME280;7060;43.770;4.008;2022-10-15T06:48:32;101131.06;;;10.70;74.43
13974;BME280;7060;43.770;4.008;2022-10-15T06:51:01;100961.69;;;9.62;74.73
13974;BME280;7060;43.770;4.008;2022-10-15T06:53:30;101097.38;;;10.58;74.77
13974;BME280;7060;43.770;4.008;2022-10-15T06:56:00;101137.19;;;10.91;74.64
13974;BME280;7060;43.770;4.008;2022-10-15T06:58:34;101129.31;;;10.90;74.98
13974;BME280;7060;43.770;4.008;2022-10-15T07:01:04;101092.38;;;10.74;75.11
13974;BME280;7060;43.770;4.008;2022-10-15T07:03:33;101144.56;;;11.18;75.11
13974;BME280;7060;43.770;4.008;2022-10-15T07:06:03;101144.13;;;11.32;75.56
13974;BME280;7060;43.770;4.008;2022-10-15T07:08:32;101146.53;;;11.45;75.34
13974;BME280;7060;43.770;4.008;2022-10-15T07:11:01;101140.19;;;11.56;75.65
13974;BME280;7060;43.770;4.008;2022-10-15T07:13:30;101141.84;;;11.66;75.79
13974;BME280;7060;43.770;4.008;2022-10-15T07:16:03;101143.25;;;11.80;76.39
13974;BME280;7060;43.770;4.008;2022-10-15T07:18:33;101128.13;;;11.98;76.38
13974;BME280;7060;43.770;4.008;2022-10-15T07:21:01;101135.81;;;12.30;77.60
13974;BME280;7060;43.770;4.008;2022-10-15T07:23:30;101137.41;;;12.78;78.18
13974;BME280;7060;43.770;4.008;2022-10-15T07:25:58;101126.69;;;13.31;77.93
13974;BME280;7060;43.770;4.008;2022-10-15T07:28:27;101131.88;;;13.86;77.94
13974;BME280;7060;43.770;4.008;2022-10-15T07:31:00;101139.13;;;14.45;76.26
13974;BME280;7060;43.770;4.008;2022-10-15T07:33:30;101136.47;;;14.96;75.03
13974;BME280;7060;43.770;4.008;2022-10-15T07:36:02;101135.53;;;15.45;73.00
13974;BME280;7060;43.770;4.008;2022-10-15T07:38:31;101139.44;;;15.83;71.45
13974;BME280;7060;43.770;4.008;2022-10-15T07:41:01;101138.38;;;16.17;69.77
13974;BME280;7060;43.770;4.008;2022-10-15T07:43:31;101147.38;;;16.48;69.46
13974;BME280;7060;43.770;4.008;2022-10-15T07:45:59;101131.78;;;16.75;68.03
13974;BME280;7060;43.770;4.008;2022-10-15T07:48:29;101145.50;;;17.19;66.52
13974;BME280;7060;43.770;4.008;2022-10-15T07:50:59;101147.19;;;17.43;65.95
13974;BME280;7060;43.770;4.008;2022-10-15T07:53:27;101144.34;;;17.67;65.21
13974;BME280;7060;43.770;4.008;2022-10-15T07:55:59;101142.88;;;17.79;64.76
13974;BME280;7060;43.770;4.008;2022-10-15T07:58:31;101140.34;;;17.78;64.58
13974;BME280;7060;43.770;4.008;2022-10-15T08:01:01;101139.34;;;17.79;64.29
13974;BME280;7060;43.770;4.008;2022-10-15T08:03:31;101144.34;;;17.67;64.78
13974;BME280;7060;43.770;4.008;2022-10-15T08:06:00;101132.44;;;17.53;64.93
13974;BME280;7060;43.770;4.008;2022-10-15T08:08:29;101140.38;;;17.55;65.35
13974;BME280;7060;43.770;4.008;2022-10-15T08:10:57;101146.00;;;17.45;66.00
13974;BME280;7060;43.770;4.008;2022-10-15T08:13:25;101143.72;;;17.34;66.41
13974;BME280;7060;43.770;4.008;2022-10-15T08:15:54;101146.41;;;17.34;66.50
13974;BME280;7060;43.770;4.008;2022-10-15T08:18:26;101135.19;;;17.22;66.64
13974;BME280;7060;43.770;4.008;2022-10-15T08:20:59;101150.69;;;17.29;66.63
13974;BME280;7060;43.770;4.008;2022-10-15T08:23:27;101152.25;;;17.46;67.37
13974;BME280;7060;43.770;4.008;2022-10-15T08:25:56;101148.03;;;17.43;67.21
13974;BME280;7060;43.770;4.008;2022-10-15T08:28:26;101150.75;;;17.43;67.24
13974;BME280;7060;43.770;4.008;2022-10-15T08:30:56;101151.72;;;17.50;67.04
13974;BME280;7060;43.770;4.008;2022-10-15T08:33:31;101144.44;;;17.51;66.42
13974;BME280;7060;43.770;4.008;2022-10-15T08:36:02;101142.22;;;17.54;67.35
13974;BME280;7060;43.770;4.008;2022-10-15T08:38:31;101148.13;;;17.58;66.95
13974;BME280;7060;43.770;4.008;2022-10-15T08:41:03;101142.34;;;17.61;66.81
13974;BME280;7060;43.770;4.008;2022-10-15T08:43:39;101143.19;;;17.62;66.75
13974;BME280;7060;43.770;4.008;2022-10-15T08:46:22;101158.38;;;17.63;66.13
13974;BME280;7060;43.770;4.008;2022-10-15T08:48:53;101154.47;;;17.65;66.02
13974;BME280;7060;43.770;4.008;2022-10-15T08:51:25;101147.50;;;17.71;65.73
13974;BME280;7060;43.770;4.008;2022-10-15T08:53:59;101150.34;;;17.77;66.37
13974;BME280;7060;43.770;4.008;2022-10-15T08:56:31;101152.13;;;17.85;65.78
13974;BME280;7060;43.770;4.008;2022-10-15T08:59:10;101145.59;;;17.94;65.94
13974;BME280;7060;43.770;4.008;2022-10-15T09:01:49;101151.13;;;18.01;65.28
13974;BME280;7060;43.770;4.008;2022-10-15T09:04:24;101147.50;;;18.08;64.91
13974;BME280;7060;43.770;4.008;2022-10-15T09:07:01;101141.38;;;18.14;65.35
13974;BME280;7060;43.770;4.008;2022-10-15T09:09:37;101147.69;;;18.21;65.97
13974;BME280;7060;43.770;4.008;2022-10-15T09:12:20;101139.50;;;18.30;65.33
13974;BME280;7060;43.770;4.008;2022-10-15T09:14:53;101136.22;;;18.34;65.78
13974;BME280;7060;43.770;4.008;2022-10-15T09:17:29;101141.28;;;18.37;65.02
13974;BME280;7060;43.770;4.008;2022-10-15T09:20:03;101145.00;;;18.36;63.60
13974;BME280;7060;43.770;4.008;2022-10-15T09:22:34;101141.09;;;18.39;64.00
13974;BME280;7060;43.770;4.008;2022-10-15T09:25:14;101146.50;;;18.39;64.03
13974;BME280;7060;43.770;4.008;2022-10-15T09:27:44;101118.22;;;18.26;64.07
13974;BME280;7060;43.770;4.008;2022-10-15T09:30:25;101140.59;;;18.50;64.28
13974;BME280;7060;43.770;4.008;2022-10-15T09:32:58;101142.97;;;18.53;64.27
13974;BME280;7060;43.770;4.008;2022-10-15T09:35:33;101138.66;;;18.58;63.78
13974;BME280;7060;43.770;4.008;2022-10-15T09:38:16;101147.06;;;18.64;63.86
13974;BME280;7060;43.770;4.008;2022-10-15T09:41:00;101151.28;;;18.66;63.42
13974;BME280;7060;43.770;4.008;2022-10-15T09:43:36;101153.03;;;18.74;63.23
13974;BME280;7060;43.770;4.008;2022-10-15T09:46:08;101144.16;;;18.80;62.87
13974;BME280;7060;43.770;4.008;2022-10-15T09:48:42;101146.09;;;18.86;62.80
13974;BME280;7060;43.770;4.008;2022-10-15T09:51:18;101152.44;;;18.93;61.86
13974;BME280;7060;43.770;4.008;2022-10-15T09:53:59;101151.66;;;18.99;61.85
13974;BME280;7060;43.770;4.008;2022-10-15T09:56:31;101150.44;;;19.02;60.37
13974;BME280;7060;43.770;4.008;2022-10-15T09:59:02;101118.16;;;18.85;60.91
13974;BME280;7060;43.770;4.008;2022-10-15T10:01:35;101142.59;;;19.07;60.85
13974;BME280;7060;43.770;4.008;2022-10-15T10:04:12;101140.78;;;19.14;61.20
13974;BME280;7060;43.770;4.008;2022-10-15T10:06:46;101137.97;;;19.22;60.54
13974;BME280;7060;43.770;4.008;2022-10-15T10:09:19;101139.88;;;19.28;60.32
13974;BME280;7060;43.770;4.008;2022-10-15T10:11:51;101110.41;;;19.18;60.26
13974;BME280;7060;43.770;4.008;2022-10-15T10:14:24;101131.28;;;19.39;59.97
13974;BME280;7060;43.770;4.008;2022-10-15T10:17:04;101128.66;;;19.46;59.49
13974;BME280;7060;43.770;4.008;2022-10-15T10:19:33;101127.03;;;19.51;59.36
13974;BME280;7060;43.770;4.008;2022-10-15T10:22:06;101137.72;;;19.59;60.31
13974;BME280;7060;43.770;4.008;2022-10-15T10:24:41;101124.81;;;19.61;60.01
13974;BME280;7060;43.770;4.008;2022-10-15T10:27:19;101134.69;;;19.69;59.97
13974;BME280;7060;43.770;4.008;2022-10-15T10:29:53;101132.03;;;19.76;60.29
13974;BME280;7060;43.770;4.008;2022-10-15T10:32:26;101128.13;;;19.85;59.48
13974;BME280;7060;43.770;4.008;2022-10-15T10:34:56;101123.22;;;19.95;59.52
13974;BME280;7060;43.770;4.008;2022-10-15T10:37:25;101128.06;;;20.06;59.43
13974;BME280;7060;43.770;4.008;2022-10-15T10:39:57;101123.22;;;20.23;59.37
13974;BME280;7060;43.770;4.008;2022-10-15T10:42:35;101128.13;;;20.41;59.30
13974;BME280;7060;43.770;4.008;2022-10-15T10:45:18;101129.88;;;20.55;58.50
13974;BME280;7060;43.770;4.008;2022-10-15T10:47:46;101125.53;;;20.67;57.73
13974;BME280;7060;43.770;4.008;2022-10-15T10:50:27;101127.47;;;20.80;58.26
13974;BME280;7060;43.770;4.008;2022-10-15T10:52:56;101123.75;;;20.87;58.12
13974;BME280;7060;43.770;4.008;2022-10-15T10:55:36;101120.22;;;21.00;57.50
13974;BME280;7060;43.770;4.008;2022-10-15T10:58:08;101110.25;;;21.14;57.14
13974;BME280;7060;43.770;4.008;2022-10-15T11:00:43;101107.13;;;21.23;56.52
13974;BME280;7060;43.770;4.008;2022-10-15T11:03:22;101116.16;;;21.37;56.92
13974;BME280;7060;43.770;4.008;2022-10-15T11:06:12;101110.28;;;21.40;56.00
13974;BME280;7060;43.770;4.008;2022-10-15T11:08:51;101109.03;;;21.49;56.62
13974;BME280;7060;43.770;4.008;2022-10-15T11:11:27;101101.94;;;21.61;57.13
13974;BME280;7060;43.770;4.008;2022-10-15T11:14:02;101099.00;;;21.70;56.67
13974;BME280;7060;43.770;4.008;2022-10-15T11:16:40;101099.81;;;21.77;56.42
13974;BME280;7060;43.770;4.008;2022-10-15T11:19:20;101068.00;;;21.71;55.01
13974;BME280;7060;43.770;4.008;2022-10-15T11:22:31;101086.88;;;21.85;55.49
13974;BME280;7060;43.770;4.008;2022-10-15T11:25:13;101076.19;;;21.84;55.41
13974;BME280;7060;43.770;4.008;2022-10-15T11:27:57;101090.38;;;21.99;54.95
13974;BME280;7060;43.770;4.008;2022-10-15T11:30:41;101084.53;;;22.02;55.56
13974;BME280;7060;43.770;4.008;2022-10-15T11:33:27;101075.72;;;22.13;55.34
13974;BME280;7060;43.770;4.008;2022-10-15T11:36:08;101071.53;;;22.17;54.79
13974;BME280;7060;43.770;4.008;2022-10-15T11:38:45;101062.09;;;22.20;54.37
13974;BME280;7060;43.770;4.008;2022-10-15T11:41:26;101063.72;;;22.27;55.04
13974;BME280;7060;43.770;4.008;2022-10-15T11:44:12;101057.19;;;22.35;55.72
13974;BME280;7060;43.770;4.008;2022-10-15T11:46:49;101050.69;;;22.43;55.17
13974;BME280;7060;43.770;4.008;2022-10-15T11:49:28;100949.53;;;21.81;54.94
13974;BME280;7060;43.770;4.008;2022-10-15T11:52:27;101050.03;;;22.54;54.68
13974;BME280;7060;43.770;4.008;2022-10-15T11:55:03;101035.78;;;22.45;52.22
13974;BME280;7060;43.770;4.008;2022-10-15T11:57:35;101046.66;;;22.58;53.38
13974;BME280;7060;43.770;4.008;2022-10-15T12:00:17;101029.03;;;22.61;54.46
13974;BME280;7060;43.770;4.008;2022-10-15T12:02:50;101025.03;;;22.63;54.49
13974;BME280;7060;43.770;4.008;2022-10-15T12:05:25;101033.19;;;22.70;54.72
13974;BME280;7060;43.770;4.008;2022-10-15T12:07:56;101032.75;;;22.73;54.43
13974;BME280;7060;43.770;4.008;2022-10-15T12:10:34;101031.47;;;22.76;54.82
13974;BME280;7060;43.770;4.008;2022-10-15T12:13:12;101024.16;;;22.76;55.19
13974;BME280;7060;43.770;4.008;2022-10-15T12:15:52;101023.94;;;22.78;54.27
13974;BME280;7060;43.770;4.008;2022-10-15T12:18:32;101024.75;;;22.78;53.82
13974;BME280;7060;43.770;4.008;2022-10-15T12:21:31;101011.72;;;22.80;53.64
13974;BME280;7060;43.770;4.008;2022-10-15T12:24:00;101008.56;;;22.83;53.89
13974;BME280;7060;43.770;4.008;2022-10-15T12:26:30;101008.31;;;22.91;54.30
13974;BME280;7060;43.770;4.008;2022-10-15T12:29:03;101001.75;;;22.99;54.43
13974;BME280;7060;43.770;4.008;2022-10-15T12:31:51;100989.97;;;23.05;53.89
13974;BME280;7060;43.770;4.008;2022-10-15T12:34:31;100985.72;;;23.09;53.50
13974;BME280;7060;43.770;4.008;2022-10-15T12:37:05;100985.06;;;23.14;52.97
13974;BME280;7060;43.770;4.008;2022-10-15T12:39:42;100970.19;;;23.10;54.09
13974;BME280;7060;43.770;4.008;2022-10-15T12:42:21;100952.16;;;23.09;53.72
13974;BME280;7060;43.770;4.008;2022-10-15T12:44:53;100972.81;;;23.23;53.97
13974;BME280;7060;43.770;4.008;2022-10-15T12:47:48;100980.91;;;23.36;52.87
13974;BME280;7060;43.770;4.008;2022-10-15T12:50:19;100976.22;;;23.43;52.66
13974;BME280;7060;43.770;4.008;2022-10-15T12:52:59;100958.97;;;23.49;52.25
13974;BME280;7060;43.770;4.008;2022-10-15T12:55:30;100968.81;;;23.50;52.30
13974;BME280;7060;43.770;4.008;2022-10-15T12:58:02;100957.91;;;23.50;52.13
13974;BME280;7060;43.770;4.008;2022-10-15T13:00:40;100944.00;;;23.34;51.60
13974;BME280;7060;43.770;4.008;2022-10-15T13:03:34;100960.69;;;23.44;52.50
13974;BME280;7060;43.770;4.008;2022-10-15T13:06:22;100964.69;;;23.41;52.41
13974;BME280;7060;43.770;4.008;2022-10-15T13:08:54;100961.56;;;23.38;52.45
13974;BME280;7060;43.770;4.008;2022-10-15T13:11:27;100948.38;;;23.35;52.46
13974;BME280;7060;43.770;4.008;2022-10-15T13:13:58;100952.66;;;23.31;52.55
13974;BME280;7060;43.770;4.008;2022-10-15T13:16:28;100951.63;;;23.25;53.09
13974;BME280;7060;43.770;4.008;2022-10-15T13:18:59;100951.63;;;23.25;53.33
13974;BME280;7060;43.770;4.008;2022-10-15T13:21:47;100942.81;;;23.23;53.02
13974;BME280;7060;43.770;4.008;2022-10-15T13:24:18;100937.34;;;23.23;52.24
13974;BME280;7060;43.770;4.008;2022-10-15T13:26:47;100939.47;;;23.21;52.98
13974;BME280;7060;43.770;4.008;2022-10-15T13:29:17;100944.06;;;23.27;53.07
13974;BME280;7060;43.770;4.008;2022-10-15T13:31:46;100934.00;;;23.27;53.17
13974;BME280;7060;43.770;4.008;2022-10-15T13:34:23;100938.16;;;23.30;53.32
13974;BME280;7060;43.770;4.008;2022-10-15T13:36:53;100931.03;;;23.29;53.37